KLM1016 EGLL-EHAM
Flight info
| Callsign | KLM1016 |
|---|---|
| Flight time | 0h 41m |
| Altitude | 29000 |
| Route | BPK Q295 BRAIN M197 REDFA |
| Aircraft | B737/M-SDE2E3FGHIRWXY/LB1 |
Departure
| Time | 2026-04-30 19:31 |
|---|---|
| Airport | London Heathrow Airport (EGLL) |
Arrival
| Time | 2026-04-30 20:12 |
|---|---|
| Airport | Amsterdam Airport Schiphol (EHAM) |
| Time | Latitude | Longitude | Altitude | Speed | Heading |
|---|---|---|---|---|---|
| 2026-04-30 19:06 | 51.46108 | -0.44482 | 85 ft | 0 kts | 294° |
| 2026-04-30 19:19 | 51.46096 | -0.44445 | 89 ft | 3 kts | 303° |
| 2026-04-30 19:20 | 51.46084 | -0.44419 | 86 ft | 3 kts | 314° |
| 2026-04-30 19:20 | 51.46069 | -0.44398 | 89 ft | 3 kts | 329° |
| 2026-04-30 19:20 | 51.46041 | -0.44389 | 89 ft | 0 kts | 24° |
| 2026-04-30 19:23 | 51.46050 | -0.44383 | 85 ft | 4 kts | 24° |
| 2026-04-30 19:24 | 51.46184 | -0.44291 | 86 ft | 15 kts | 22° |
| 2026-04-30 19:24 | 51.46277 | -0.44227 | 89 ft | 11 kts | 20° |
| 2026-04-30 19:24 | 51.46326 | -0.44444 | 87 ft | 16 kts | 270° |
| 2026-04-30 19:25 | 51.46317 | -0.45150 | 87 ft | 22 kts | 270° |
| 2026-04-30 19:26 | 51.46319 | -0.45632 | 90 ft | 21 kts | 275° |
| 2026-04-30 19:26 | 51.46323 | -0.46087 | 87 ft | 20 kts | 270° |
| 2026-04-30 19:26 | 51.46322 | -0.46303 | 86 ft | 19 kts | 270° |
| 2026-04-30 19:27 | 51.46321 | -0.46716 | 86 ft | 18 kts | 271° |
| 2026-04-30 19:27 | 51.46321 | -0.47131 | 86 ft | 18 kts | 269° |
| 2026-04-30 19:28 | 51.46321 | -0.47316 | 86 ft | 13 kts | 274° |
| 2026-04-30 19:28 | 51.46345 | -0.47456 | 88 ft | 0 kts | 296° |
| 2026-04-30 19:29 | 51.46396 | -0.47496 | 87 ft | 11 kts | 360° |
| 2026-04-30 19:29 | 51.46461 | -0.47493 | 86 ft | 7 kts | 15° |
| 2026-04-30 19:30 | 51.46481 | -0.47427 | 86 ft | 0 kts | 89° |
| 2026-04-30 19:30 | 51.46481 | -0.47308 | 86 ft | 35 kts | 89° |
| 2026-04-30 19:31 | 51.46487 | -0.45143 | 91 ft | 150 kts | 90° |
| 2026-04-30 19:31 | 51.46481 | -0.43362 | 523 ft | 157 kts | 89° |
| 2026-04-30 19:31 | 51.47170 | -0.40205 | 1912 ft | 167 kts | 58° |
| 2026-04-30 19:32 | 51.47975 | -0.38631 | 2220 ft | 199 kts | 57° |
| 2026-04-30 19:32 | 51.48910 | -0.36795 | 2506 ft | 228 kts | 57° |
| 2026-04-30 19:32 | 51.49959 | -0.34725 | 2953 ft | 249 kts | 56° |
| 2026-04-30 19:32 | 51.51091 | -0.32543 | 3606 ft | 262 kts | 56° |
| 2026-04-30 19:33 | 51.52206 | -0.30155 | 4365 ft | 266 kts | 68° |
| 2026-04-30 19:33 | 51.52870 | -0.27359 | 5143 ft | 271 kts | 75° |
| 2026-04-30 19:33 | 51.53480 | -0.24467 | 5995 ft | 274 kts | 74° |
| 2026-04-30 19:33 | 51.54099 | -0.21594 | 6985 ft | 274 kts | 73° |
| 2026-04-30 19:34 | 51.55067 | -0.18897 | 7874 ft | 285 kts | 47° |
| 2026-04-30 19:34 | 51.56776 | -0.17240 | 8819 ft | 296 kts | 17° |
| 2026-04-30 19:34 | 51.60944 | -0.16430 | 10640 ft | 308 kts | 12° |
| 2026-04-30 19:35 | 51.63067 | -0.15806 | 11508 ft | 312 kts | 13° |
| 2026-04-30 19:35 | 51.65217 | -0.15180 | 12414 ft | 315 kts | 13° |
| 2026-04-30 19:35 | 51.67366 | -0.14367 | 13298 ft | 319 kts | 18° |
| 2026-04-30 19:35 | 51.69517 | -0.13401 | 14196 ft | 323 kts | 18° |
| 2026-04-30 19:36 | 51.71699 | -0.12417 | 15040 ft | 327 kts | 19° |
| 2026-04-30 19:36 | 51.73695 | -0.10846 | 15860 ft | 323 kts | 44° |
| 2026-04-30 19:36 | 51.75758 | -0.04666 | 17357 ft | 326 kts | 83° |
| 2026-04-30 19:37 | 51.76073 | -0.00895 | 17527 ft | 351 kts | 86° |
| 2026-04-30 19:37 | 51.76330 | 0.03153 | 17690 ft | 374 kts | 86° |
| 2026-04-30 19:37 | 51.76603 | 0.07417 | 18169 ft | 387 kts | 86° |
| 2026-04-30 19:37 | 51.76907 | 0.11748 | 18870 ft | 391 kts | 85° |
| 2026-04-30 19:38 | 51.77229 | 0.16114 | 19623 ft | 393 kts | 85° |
| 2026-04-30 19:38 | 51.77557 | 0.20510 | 20356 ft | 395 kts | 86° |
| 2026-04-30 19:38 | 51.77891 | 0.24927 | 21048 ft | 399 kts | 86° |
| 2026-04-30 19:38 | 51.78242 | 0.29393 | 21723 ft | 402 kts | 85° |
| 2026-04-30 19:39 | 51.78607 | 0.33897 | 22389 ft | 406 kts | 85° |
| 2026-04-30 19:39 | 51.78976 | 0.38431 | 23060 ft | 409 kts | 85° |
| 2026-04-30 19:39 | 51.79346 | 0.43007 | 23714 ft | 412 kts | 86° |
| 2026-04-30 19:39 | 51.79711 | 0.47561 | 24253 ft | 415 kts | 86° |
| 2026-04-30 19:40 | 51.80080 | 0.52205 | 24781 ft | 418 kts | 86° |
| 2026-04-30 19:40 | 51.80450 | 0.56883 | 25303 ft | 421 kts | 86° |
| 2026-04-30 19:40 | 51.80819 | 0.61599 | 25813 ft | 424 kts | 86° |
| 2026-04-30 19:40 | 51.81240 | 0.66339 | 26293 ft | 429 kts | 82° |
| 2026-04-30 19:41 | 51.81949 | 0.71060 | 26780 ft | 433 kts | 79° |
| 2026-04-30 19:41 | 51.82708 | 0.75795 | 27206 ft | 436 kts | 79° |
| 2026-04-30 19:41 | 51.83460 | 0.80576 | 27207 ft | 438 kts | 79° |
| 2026-04-30 19:41 | 51.84219 | 0.85270 | 27218 ft | 435 kts | 77° |
| 2026-04-30 19:42 | 51.85060 | 0.89962 | 27230 ft | 434 kts | 76° |
| 2026-04-30 19:42 | 51.85933 | 0.94648 | 27246 ft | 435 kts | 76° |
| 2026-04-30 19:42 | 51.86811 | 0.99337 | 27243 ft | 435 kts | 76° |
| 2026-04-30 19:42 | 51.87680 | 1.04022 | 27240 ft | 435 kts | 76° |
| 2026-04-30 19:43 | 51.88540 | 1.08713 | 27242 ft | 435 kts | 77° |
| 2026-04-30 19:43 | 51.89393 | 1.13419 | 27242 ft | 435 kts | 77° |
| 2026-04-30 19:43 | 51.90239 | 1.18113 | 27243 ft | 435 kts | 77° |
| 2026-04-30 19:44 | 51.91924 | 1.27532 | 27242 ft | 435 kts | 77° |
| 2026-04-30 19:44 | 51.92761 | 1.32234 | 27237 ft | 435 kts | 77° |
| 2026-04-30 19:44 | 51.93597 | 1.36936 | 27244 ft | 435 kts | 77° |
| 2026-04-30 19:44 | 51.94434 | 1.41656 | 27244 ft | 435 kts | 77° |
| 2026-04-30 19:45 | 51.95257 | 1.46310 | 27245 ft | 435 kts | 77° |
| 2026-04-30 19:45 | 51.96088 | 1.51021 | 27243 ft | 435 kts | 77° |
| 2026-04-30 19:45 | 51.96918 | 1.55739 | 27245 ft | 435 kts | 77° |
| 2026-04-30 19:45 | 51.97747 | 1.60455 | 27246 ft | 435 kts | 77° |
| 2026-04-30 19:46 | 51.98574 | 1.65178 | 27245 ft | 435 kts | 77° |
| 2026-04-30 19:46 | 51.99391 | 1.69896 | 27246 ft | 435 kts | 77° |
| 2026-04-30 19:46 | 52.00158 | 1.74630 | 27249 ft | 434 kts | 78° |
| 2026-04-30 19:46 | 52.00899 | 1.79393 | 27251 ft | 434 kts | 78° |
| 2026-04-30 19:47 | 52.01629 | 1.84154 | 27251 ft | 434 kts | 78° |
| 2026-04-30 19:47 | 52.02114 | 1.87319 | 27252 ft | 434 kts | 78° |
| 2026-04-30 19:47 | 52.03092 | 1.93681 | 27252 ft | 435 kts | 78° |
| 2026-04-30 19:47 | 52.03817 | 1.98388 | 27253 ft | 435 kts | 78° |
| 2026-04-30 19:48 | 52.04559 | 2.03193 | 27242 ft | 430 kts | 78° |
| 2026-04-30 19:48 | 52.05274 | 2.07830 | 27244 ft | 426 kts | 78° |
| 2026-04-30 19:48 | 52.05993 | 2.12503 | 27260 ft | 427 kts | 78° |
| 2026-04-30 19:48 | 52.06711 | 2.17189 | 27263 ft | 428 kts | 78° |
| 2026-04-30 19:49 | 52.07429 | 2.21890 | 26939 ft | 429 kts | 78° |
| 2026-04-30 19:49 | 52.08849 | 2.31223 | 25777 ft | 420 kts | 78° |
| 2026-04-30 19:49 | 52.09542 | 2.35795 | 25135 ft | 415 kts | 78° |
| 2026-04-30 19:50 | 52.10229 | 2.40335 | 24519 ft | 411 kts | 78° |
| 2026-04-30 19:50 | 52.10907 | 2.44837 | 23847 ft | 408 kts | 78° |
| 2026-04-30 19:50 | 52.11667 | 2.49265 | 23140 ft | 406 kts | 70° |
| 2026-04-30 19:50 | 52.12991 | 2.53264 | 22846 ft | 397 kts | 62° |
| 2026-04-30 19:51 | 52.14407 | 2.57093 | 22444 ft | 393 kts | 61° |
| 2026-04-30 19:51 | 52.15830 | 2.60923 | 22108 ft | 397 kts | 61° |
| 2026-04-30 19:51 | 52.17261 | 2.64800 | 21754 ft | 401 kts | 62° |
| 2026-04-30 19:51 | 52.18685 | 2.68690 | 21393 ft | 399 kts | 62° |
| 2026-04-30 19:52 | 52.20100 | 2.72584 | 21037 ft | 396 kts | 62° |
| 2026-04-30 19:52 | 52.21494 | 2.76442 | 20684 ft | 394 kts | 62° |
| 2026-04-30 19:52 | 52.22874 | 2.80276 | 20329 ft | 392 kts | 62° |
| 2026-04-30 19:52 | 52.24252 | 2.84117 | 20001 ft | 390 kts | 62° |
| 2026-04-30 19:53 | 52.25619 | 2.87935 | 19659 ft | 389 kts | 62° |
| 2026-04-30 19:53 | 52.26963 | 2.91695 | 19319 ft | 388 kts | 62° |
| 2026-04-30 19:53 | 52.28321 | 2.95500 | 18982 ft | 386 kts | 63° |
| 2026-04-30 19:53 | 52.29668 | 2.99278 | 18645 ft | 384 kts | 63° |
| 2026-04-30 19:54 | 52.31007 | 3.03040 | 18269 ft | 381 kts | 63° |
| 2026-04-30 19:54 | 52.32338 | 3.06784 | 17907 ft | 379 kts | 63° |
| 2026-04-30 19:54 | 52.33656 | 3.10499 | 17560 ft | 377 kts | 63° |
| 2026-04-30 19:54 | 52.34968 | 3.14203 | 17213 ft | 375 kts | 63° |
| 2026-04-30 19:55 | 52.36270 | 3.17882 | 16882 ft | 373 kts | 63° |
| 2026-04-30 19:55 | 52.37569 | 3.21556 | 16550 ft | 371 kts | 63° |
| 2026-04-30 19:55 | 52.38852 | 3.25194 | 16225 ft | 369 kts | 63° |
| 2026-04-30 19:55 | 52.40133 | 3.28830 | 15890 ft | 367 kts | 63° |
| 2026-04-30 19:56 | 52.41405 | 3.32446 | 15580 ft | 365 kts | 63° |
| 2026-04-30 19:56 | 52.42660 | 3.36015 | 15257 ft | 363 kts | 63° |
| 2026-04-30 19:56 | 52.43916 | 3.39595 | 14935 ft | 361 kts | 63° |
| 2026-04-30 19:56 | 52.44998 | 3.43262 | 14592 ft | 351 kts | 77° |
| 2026-04-30 19:57 | 52.45215 | 3.47050 | 14454 ft | 321 kts | 99° |
| 2026-04-30 19:57 | 52.44594 | 3.50391 | 14323 ft | 295 kts | 117° |
| 2026-04-30 19:57 | 52.43674 | 3.53260 | 14162 ft | 277 kts | 120° |
| 2026-04-30 19:57 | 52.42743 | 3.55980 | 13665 ft | 271 kts | 121° |
| 2026-04-30 19:58 | 52.41804 | 3.58688 | 13157 ft | 274 kts | 121° |
| 2026-04-30 19:58 | 52.40860 | 3.61392 | 12828 ft | 271 kts | 121° |
| 2026-04-30 19:58 | 52.39929 | 3.64055 | 12487 ft | 268 kts | 121° |
| 2026-04-30 19:58 | 52.39006 | 3.66690 | 12118 ft | 267 kts | 121° |
| 2026-04-30 19:59 | 52.38082 | 3.69325 | 11761 ft | 266 kts | 121° |
| 2026-04-30 19:59 | 52.37164 | 3.71936 | 11425 ft | 263 kts | 121° |
| 2026-04-30 19:59 | 52.35345 | 3.77107 | 10730 ft | 261 kts | 121° |
| 2026-04-30 20:00 | 52.34747 | 3.78805 | 10505 ft | 260 kts | 121° |
| 2026-04-30 20:00 | 52.33848 | 3.81361 | 10155 ft | 259 kts | 121° |
| 2026-04-30 20:00 | 52.32952 | 3.83906 | 9790 ft | 257 kts | 121° |
| 2026-04-30 20:00 | 52.32063 | 3.86432 | 9448 ft | 254 kts | 121° |
| 2026-04-30 20:01 | 52.30306 | 3.91414 | 8734 ft | 251 kts | 121° |
| 2026-04-30 20:01 | 52.29433 | 3.93880 | 8401 ft | 249 kts | 121° |
| 2026-04-30 20:01 | 52.28579 | 3.96285 | 8294 ft | 238 kts | 121° |
| 2026-04-30 20:02 | 52.27002 | 4.00725 | 8116 ft | 215 kts | 121° |
| 2026-04-30 20:02 | 52.26273 | 4.02779 | 7994 ft | 203 kts | 121° |
| 2026-04-30 20:03 | 52.24886 | 4.06698 | 7530 ft | 198 kts | 121° |
| 2026-04-30 20:03 | 52.24200 | 4.08643 | 7275 ft | 197 kts | 121° |
| 2026-04-30 20:03 | 52.23495 | 4.10636 | 6698 ft | 212 kts | 121° |
| 2026-04-30 20:03 | 52.22747 | 4.12745 | 6283 ft | 216 kts | 121° |
| 2026-04-30 20:04 | 52.21996 | 4.14869 | 5962 ft | 216 kts | 121° |
| 2026-04-30 20:04 | 52.21253 | 4.16985 | 5661 ft | 215 kts | 121° |
| 2026-04-30 20:04 | 52.20516 | 4.19101 | 5348 ft | 215 kts | 121° |
| 2026-04-30 20:05 | 52.19053 | 4.23327 | 4760 ft | 213 kts | 121° |
| 2026-04-30 20:05 | 52.18329 | 4.25427 | 4499 ft | 211 kts | 121° |
| 2026-04-30 20:05 | 52.16908 | 4.29558 | 4315 ft | 211 kts | 121° |
| 2026-04-30 20:06 | 52.16462 | 4.31826 | 4298 ft | 214 kts | 95° |
| 2026-04-30 20:06 | 52.16585 | 4.34224 | 4299 ft | 217 kts | 88° |
| 2026-04-30 20:06 | 52.16785 | 4.36649 | 4200 ft | 214 kts | 88° |
| 2026-04-30 20:06 | 52.16991 | 4.39053 | 3914 ft | 214 kts | 87° |
| 2026-04-30 20:07 | 52.17195 | 4.41452 | 3608 ft | 214 kts | 87° |
| 2026-04-30 20:07 | 52.17549 | 4.43813 | 3303 ft | 219 kts | 71° |
| 2026-04-30 20:07 | 52.19114 | 4.48109 | 3060 ft | 221 kts | 64° |
| 2026-04-30 20:08 | 52.19912 | 4.50167 | 2996 ft | 206 kts | 65° |
| 2026-04-30 20:08 | 52.20637 | 4.52055 | 2966 ft | 187 kts | 66° |
| 2026-04-30 20:08 | 52.21300 | 4.53794 | 2830 ft | 174 kts | 66° |
| 2026-04-30 20:08 | 52.21927 | 4.55442 | 2601 ft | 167 kts | 66° |
| 2026-04-30 20:09 | 52.22525 | 4.57011 | 2380 ft | 159 kts | 67° |
| 2026-04-30 20:09 | 52.23099 | 4.58515 | 2169 ft | 151 kts | 68° |
| 2026-04-30 20:09 | 52.24183 | 4.61359 | 1790 ft | 144 kts | 68° |
| 2026-04-30 20:10 | 52.25233 | 4.64101 | 1369 ft | 131 kts | 69° |
| 2026-04-30 20:10 | 52.25693 | 4.65305 | 1204 ft | 121 kts | 69° |
| 2026-04-30 20:10 | 52.26129 | 4.66451 | 1066 ft | 119 kts | 68° |
| 2026-04-30 20:11 | 52.27027 | 4.68836 | 718 ft | 127 kts | 64° |
| 2026-04-30 20:11 | 52.27498 | 4.70057 | 554 ft | 127 kts | 60° |
| 2026-04-30 20:11 | 52.27984 | 4.71302 | 369 ft | 133 kts | 64° |
| 2026-04-30 20:12 | 52.28970 | 4.73874 | 17 ft | 131 kts | 62° |
| 2026-04-30 20:12 | 52.29396 | 4.74987 | -3 ft | 87 kts | 58° |
| 2026-04-30 20:12 | 52.29613 | 4.75552 | -2 ft | 37 kts | 57° |
| 2026-04-30 20:13 | 52.29770 | 4.75794 | -3 ft | 24 kts | 27° |
| 2026-04-30 20:13 | 52.29869 | 4.75879 | -2 ft | 13 kts | 28° |
| 2026-04-30 20:13 | 52.29927 | 4.75928 | -2 ft | 6 kts | 28° |
| 2026-04-30 20:13 | 52.29968 | 4.75966 | -2 ft | 9 kts | 32° |
| 2026-04-30 20:14 | 52.30019 | 4.76060 | -2 ft | 13 kts | 58° |
| 2026-04-30 20:14 | 52.30071 | 4.76196 | -2 ft | 16 kts | 57° |
| 2026-04-30 20:14 | 52.30131 | 4.76352 | -2 ft | 15 kts | 58° |
| 2026-04-30 20:14 | 52.30178 | 4.76475 | -2 ft | 12 kts | 57° |
| 2026-04-30 20:15 | 52.30223 | 4.76591 | -2 ft | 13 kts | 58° |
| 2026-04-30 20:15 | 52.30275 | 4.76725 | -2 ft | 16 kts | 58° |
| 2026-04-30 20:15 | 52.30337 | 4.76887 | -2 ft | 17 kts | 58° |
| 2026-04-30 20:15 | 52.30387 | 4.77018 | -2 ft | 10 kts | 53° |
| 2026-04-30 20:16 | 52.30448 | 4.77034 | -2 ft | 10 kts | 330° |
| 2026-04-30 20:16 | 52.30513 | 4.76964 | -2 ft | 13 kts | 327° |
| 2026-04-30 20:16 | 52.30595 | 4.76881 | -2 ft | 13 kts | 333° |
| 2026-04-30 20:16 | 52.30677 | 4.76851 | -2 ft | 10 kts | 332° |
| 2026-04-30 20:17 | 52.30718 | 4.76843 | -2 ft | 6 kts | 44° |
| 2026-04-30 20:17 | 52.30741 | 4.76888 | -2 ft | 3 kts | 50° |
| 2026-04-30 20:17 | 52.30749 | 4.76905 | -2 ft | 1 kts | 50° |
| 2026-04-30 20:17 | 52.30750 | 4.76906 | -2 ft | 0 kts | 50° |